Time;durP1;ratioP1;P1;durP2;ratioP2;P2;SDS_P1;SDS_P2;PMS_P1;PMS_P2;Temp;Humidity;BMP_temperature;BMP_pressure;BME280_temperature;BME280_humidity;BME280_pressure;Samples;Min_cycle;Max_cycle;Signal;HPM_P1;HPM_P2
2022/07/18 00:01:21;;;;;;;1.40;1.30;;;;;;;16.68;58.18;102352.94;5032997;28;20025;-84
2022/07/18 00:03:47;;;;;;;1.57;1.47;;;;;;;16.63;58.69;102349.50;5033175;28;20112;-83
2022/07/18 00:06:12;;;;;;;1.53;1.43;;;;;;;16.60;58.46;102343.47;5032204;28;20045;-83
2022/07/18 00:08:37;;;;;;;1.67;1.50;;;;;;;16.54;58.49;102339.19;5032551;28;20100;-83
2022/07/18 00:11:03;;;;;;;1.97;1.50;;;;;;;16.50;58.51;102335.75;5032052;28;20087;-83
2022/07/18 00:13:28;;;;;;;1.50;1.40;;;;;;;16.49;58.58;102338.41;5032328;28;20030;-83
2022/07/18 00:15:53;;;;;;;1.50;1.40;;;;;;;16.44;58.95;102327.97;5032694;28;20096;-84
2022/07/18 00:18:19;;;;;;;1.63;1.53;;;;;;;16.40;59.04;102328.94;5032734;28;20025;-83
2022/07/18 00:20:44;;;;;;;1.50;1.40;;;;;;;16.37;58.99;102334.22;5032169;28;20389;-83
2022/07/18 00:23:09;;;;;;;1.50;1.40;;;;;;;16.32;59.41;102329.06;5032581;28;20028;-85
2022/07/18 00:25:35;;;;;;;1.43;1.33;;;;;;;16.29;59.48;102320.38;5032929;28;20022;-84
2022/07/18 00:28:00;;;;;;;1.60;1.50;;;;;;;16.23;59.86;102320.47;5031791;28;20041;-83
2022/07/18 00:30:25;;;;;;;1.40;1.30;;;;;;;16.18;59.96;102317.91;5032660;28;20069;-83
2022/07/18 00:32:50;;;;;;;1.73;1.60;;;;;;;16.11;59.99;102314.50;5031998;28;20030;-83
2022/07/18 00:35:16;;;;;;;1.50;1.40;;;;;;;16.05;60.10;102312.84;5032379;28;20018;-83
2022/07/18 00:37:41;;;;;;;1.57;1.47;;;;;;;15.99;59.86;102312.97;5032513;28;20022;-83
2022/07/18 00:40:07;;;;;;;1.50;1.40;;;;;;;15.95;60.25;102311.25;5031831;28;20470;-83
2022/07/18 00:42:32;;;;;;;1.70;1.50;;;;;;;15.89;60.24;102308.75;5032510;28;20378;-83
2022/07/18 00:44:58;;;;;;;2.83;1.67;;;;;;;15.84;60.54;102310.50;5032044;28;20036;-83
2022/07/18 00:47:23;;;;;;;1.63;1.50;;;;;;;15.80;60.27;102309.69;5031783;28;20099;-83
2022/07/18 00:49:49;;;;;;;2.37;1.70;;;;;;;15.77;60.58;102301.88;5032312;28;20227;-83
2022/07/18 00:52:14;;;;;;;1.40;1.30;;;;;;;15.75;60.82;102306.28;5032467;28;20025;-83
2022/07/18 00:54:40;;;;;;;1.63;1.53;;;;;;;15.70;60.88;102302.84;5031431;28;20026;-83
2022/07/18 00:57:05;;;;;;;1.70;1.60;;;;;;;15.66;60.81;102302.03;5032442;28;20029;-83
2022/07/18 01:02:15;;;;;;;1.80;1.52;;;;;;;15.56;61.42;102305.66;5031541;28;20102;-83
2022/07/18 01:04:40;;;;;;;1.50;1.40;;;;;;;15.52;61.17;102297.00;5032169;28;20424;-84
2022/07/18 01:07:06;;;;;;;1.70;1.43;;;;;;;15.50;61.41;102298.75;5032195;28;20041;-83
2022/07/18 01:09:32;;;;;;;1.90;1.70;;;;;;;15.47;61.28;102298.78;5031655;28;20048;-83
2022/07/18 01:11:58;;;;;;;1.58;1.45;;;;;;;15.44;61.24;102293.59;5031719;28;20030;-83
2022/07/18 01:14:24;;;;;;;1.70;1.60;;;;;;;15.41;61.53;102288.41;5032324;28;20036;-83
2022/07/18 01:16:49;;;;;;;1.60;1.50;;;;;;;15.39;61.62;102287.56;5031243;28;20029;-83
2022/07/18 01:19:15;;;;;;;1.83;1.50;;;;;;;15.35;61.82;102291.09;5032221;28;20022;-83
2022/07/18 01:21:40;;;;;;;1.70;1.60;;;;;;;15.32;61.65;102288.50;5033991;28;20061;-83
2022/07/18 01:24:06;;;;;;;2.07;1.77;;;;;;;15.28;61.79;102290.28;5035038;28;20088;-83
2022/07/18 01:26:32;;;;;;;1.80;1.70;;;;;;;15.25;61.88;102283.38;5036023;28;20018;-83
2022/07/18 01:28:57;;;;;;;1.80;1.70;;;;;;;15.22;62.02;102287.78;5035309;28;20056;-83
2022/07/18 01:31:22;;;;;;;2.63;1.73;;;;;;;15.18;62.32;102289.56;5034739;28;20791;-83
2022/07/18 01:33:47;;;;;;;1.67;1.53;;;;;;;15.17;62.15;102284.31;5035596;28;20044;-84
2022/07/18 01:36:13;;;;;;;1.70;1.60;;;;;;;15.13;62.27;102283.50;5034677;28;20029;-83
2022/07/18 01:38:38;;;;;;;2.00;1.80;;;;;;;15.09;62.19;102287.03;5035537;28;20033;-83
2022/07/18 01:41:04;;;;;;;2.53;1.60;;;;;;;15.06;62.53;102284.47;5035468;28;20069;-84
2022/07/18 01:43:30;;;;;;;1.90;1.70;;;;;;;15.01;62.47;102274.06;5034964;28;20032;-83
2022/07/18 01:45:56;;;;;;;2.03;1.75;;;;;;;14.97;62.57;102281.03;5035147;28;20021;-83
2022/07/18 01:48:23;;;;;;;2.30;1.80;;;;;;;14.97;62.77;102281.03;5035047;28;20116;-84
2022/07/18 01:50:49;;;;;;;1.80;1.70;;;;;;;14.94;63.17;102286.31;5034437;28;20041;-83
2022/07/18 01:53:14;;;;;;;1.88;1.75;;;;;;;14.94;62.84;102277.59;5035451;28;20033;-83
2022/07/18 01:55:39;;;;;;;3.20;1.77;;;;;;;14.91;62.89;102282.88;5035014;28;20418;-83
2022/07/18 01:58:05;;;;;;;1.57;1.47;;;;;;;14.89;62.84;102276.81;5034037;28;20026;-83
2022/07/18 02:00:31;;;;;;;1.83;1.70;;;;;;;14.86;63.59;102290.75;5035001;28;20367;-83
2022/07/18 02:02:56;;;;;;;1.57;1.40;;;;;;;14.82;63.28;102274.22;5034818;28;20032;-83
2022/07/18 02:05:21;;;;;;;1.70;1.60;;;;;;;14.80;63.41;102281.25;5034288;28;20095;-83
2022/07/18 02:07:46;;;;;;;1.80;1.57;;;;;;;14.76;63.25;102279.53;5034881;28;20025;-83
2022/07/18 02:10:15;;;;;;;1.60;1.50;;;;;;;14.73;63.73;102276.94;5034543;28;20033;-83
2022/07/18 02:12:41;;;;;;;2.22;1.73;;;;;;;14.71;63.55;102272.63;5033993;28;20079;-83
2022/07/18 02:15:08;;;;;;;1.70;1.60;;;;;;;14.66;63.58;102265.66;5034420;28;20036;-84
2022/07/18 02:17:34;;;;;;;2.05;1.60;;;;;;;14.65;63.92;102257.84;5034773;28;20091;-83
2022/07/18 02:20:00;;;;;;;1.90;1.70;;;;;;;14.60;64.04;102263.13;5033714;28;20401;-83
2022/07/18 02:22:25;;;;;;;1.93;1.80;;;;;;;14.57;64.40;102257.06;5034340;28;20099;-83
2022/07/18 02:24:52;;;;;;;1.70;1.53;;;;;;;14.53;63.89;102256.19;5034111;28;20470;-83
2022/07/18 02:27:17;;;;;;;1.80;1.70;;;;;;;14.50;64.62;102251.00;5034054;28;20021;-83
2022/07/18 02:29:43;;;;;;;1.63;1.53;;;;;;;14.48;64.27;102256.22;5034334;28;20045;-83
2022/07/18 02:32:09;;;;;;;1.98;1.83;;;;;;;14.46;64.10;102251.91;5033603;28;20547;-83
2022/07/18 02:34:34;;;;;;;2.47;1.83;;;;;;;14.42;64.39;102258.03;5033818;28;20033;-83
2022/07/18 02:37:00;;;;;;;1.70;1.60;;;;;;;14.38;64.17;102253.72;5034194;28;20025;-83
2022/07/18 02:39:25;;;;;;;1.43;1.33;;;;;;;14.35;64.13;102263.31;5034117;28;20076;-83
2022/07/18 02:41:51;;;;;;;1.67;1.57;;;;;;;14.34;64.68;102261.59;5033193;28;20037;-84
2022/07/18 02:44:16;;;;;;;2.03;1.70;;;;;;;14.34;64.43;102252.91;5034378;28;20068;-83
2022/07/18 02:46:42;;;;;;;1.80;1.70;;;;;;;14.33;64.31;102259.00;5033616;28;20057;-83
2022/07/18 02:49:07;;;;;;;1.90;1.70;;;;;;;14.31;65.26;102251.16;5033382;28;20030;-84
2022/07/18 02:51:32;;;;;;;1.67;1.57;;;;;;;14.27;64.72;102249.47;5033931;28;20029;-83
2022/07/18 02:53:58;;;;;;;1.80;1.70;;;;;;;14.24;65.43;102246.88;5033166;28;20136;-83
2022/07/18 02:56:23;;;;;;;1.80;1.70;;;;;;;14.23;64.65;102250.38;5034216;28;20076;-83
2022/07/18 02:58:48;;;;;;;1.80;1.70;;;;;;;14.23;64.88;102257.34;5033677;28;20029;-83
2022/07/18 03:01:14;;;;;;;3.00;2.07;;;;;;;14.23;64.73;102254.72;5032751;28;20041;-83
2022/07/18 03:03:39;;;;;;;1.80;1.70;;;;;;;14.19;64.74;102246.91;5033959;28;20108;-83
2022/07/18 03:06:04;;;;;;;2.17;1.80;;;;;;;14.16;65.29;102252.16;5033872;28;20036;-83
2022/07/18 03:08:30;;;;;;;2.50;1.90;;;;;;;14.14;64.83;102253.06;5032912;28;20095;-83
2022/07/18 03:10:55;;;;;;;2.07;1.70;;;;;;;14.11;65.14;102253.94;5033411;28;20030;-83
2022/07/18 03:13:20;;;;;;;2.37;1.93;;;;;;;14.08;65.06;102238.31;5033942;28;20030;-83
2022/07/18 03:15:45;;;;;;;2.30;1.93;;;;;;;14.05;65.08;102243.53;5033069;28;20032;-84
2022/07/18 03:18:11;;;;;;;2.43;2.00;;;;;;;14.01;65.55;102232.25;5032677;28;20071;-84
2022/07/18 03:20:36;;;;;;;2.50;1.90;;;;;;;13.97;65.48;102225.31;5033794;28;20052;-83
2022/07/18 03:23:06;;;;;;;2.10;1.90;;;;;;;13.93;65.59;102231.47;5032669;28;20022;-83
2022/07/18 03:25:32;;;;;;;2.08;1.80;;;;;;;13.92;65.36;102227.09;5033503;28;20378;-83
2022/07/18 03:27:57;;;;;;;2.37;2.17;;;;;;;13.90;65.70;102219.28;5033054;28;20032;-83
2022/07/18 03:30:23;;;;;;;2.97;1.90;;;;;;;13.92;65.65;102224.50;5032619;28;20050;-83
2022/07/18 03:32:48;;;;;;;2.17;1.97;;;;;;;13.91;65.69;102222.75;5033214;28;20044;-83
2022/07/18 03:35:14;;;;;;;2.13;1.90;;;;;;;13.88;65.85;102220.16;5033497;28;20029;-83
2022/07/18 03:37:40;;;;;;;2.28;2.05;;;;;;;13.85;65.65;102213.25;5032203;28;20018;-83
2022/07/18 03:40:06;;;;;;;2.20;1.80;;;;;;;13.85;65.69;102220.19;5033062;28;20036;-83
2022/07/18 03:42:31;;;;;;;3.13;2.00;;;;;;;13.86;65.65;102221.91;5032869;28;20133;-83
2022/07/18 03:44:56;;;;;;;2.00;1.80;;;;;;;13.88;65.79;102217.56;5031064;28;20434;-83
2022/07/18 03:47:21;;;;;;;2.23;1.90;;;;;;;13.88;66.10;102225.38;5032991;28;20034;-83
2022/07/18 03:49:47;;;;;;;1.80;1.70;;;;;;;13.86;65.80;102217.59;5032879;28;20458;-83
2022/07/18 03:52:12;;;;;;;1.70;1.60;;;;;;;13.87;65.97;102224.53;5032479;28;20032;-83
2022/07/18 03:54:37;;;;;;;2.23;2.00;;;;;;;13.87;66.21;102226.25;5033447;28;20432;-86
2022/07/18 03:57:02;;;;;;;4.63;2.33;;;;;;;13.85;66.35;102221.06;5032278;28;20382;-86
2022/07/18 03:59:28;;;;;;;4.37;2.10;;;;;;;13.87;66.39;102223.66;5033079;28;20041;-85
2022/07/18 04:01:53;;;;;;;3.33;2.00;;;;;;;13.87;66.09;102221.03;5032327;28;20029;-86
2022/07/18 04:04:18;;;;;;;2.17;1.97;;;;;;;13.86;66.30;102219.31;5032379;28;20037;-90
2022/07/18 04:06:44;;;;;;;3.87;2.07;;;;;;;13.85;66.19;102218.47;5033933;28;20060;-89
2022/07/18 04:09:09;;;;;;;2.00;1.80;;;;;;;13.86;66.34;102214.97;5033147;28;20021;-89
2022/07/18 04:11:34;;;;;;;2.40;1.93;;;;;;;13.86;67.04;102214.09;5033365;28;20104;-87
2022/07/18 04:14:00;;;;;;;1.77;1.63;;;;;;;13.85;66.79;102215.84;5033464;28;20021;-87
2022/07/18 04:16:25;;;;;;;1.87;1.70;;;;;;;13.84;66.83;102219.31;5033306;28;20432;-88
2022/07/18 04:18:50;;;;;;;2.60;1.83;;;;;;;13.85;66.96;102204.53;5032492;28;20032;-88
2022/07/18 04:21:16;;;;;;;1.70;1.60;;;;;;;13.85;66.87;102196.69;5033361;28;20033;-88
2022/07/18 04:23:42;;;;;;;1.60;1.50;;;;;;;13.85;66.72;102201.91;5032865;28;20018;-88
2022/07/18 04:26:07;;;;;;;2.00;1.80;;;;;;;13.84;66.19;102208.03;5032093;28;20029;-87
2022/07/18 04:28:33;;;;;;;2.00;1.80;;;;;;;13.85;66.66;102200.19;5032347;28;20430;-83
2022/07/18 04:30:58;;;;;;;1.70;1.60;;;;;;;13.87;66.78;102195.84;5032438;28;20061;-83
2022/07/18 04:33:23;;;;;;;1.80;1.70;;;;;;;13.86;66.42;102186.28;5031767;28;20159;-83
2022/07/18 04:35:49;;;;;;;1.70;1.60;;;;;;;13.92;66.76;102192.28;5032210;28;20026;-83
2022/07/18 04:38:14;;;;;;;1.77;1.63;;;;;;;13.93;66.83;102186.22;5032171;28;20036;-84
2022/07/18 04:40:40;;;;;;;1.77;1.67;;;;;;;13.95;66.81;102184.47;5031704;28;20440;-83
2022/07/18 04:43:06;;;;;;;1.87;1.70;;;;;;;13.97;66.91;102183.56;5031257;28;20041;-81
2022/07/18 04:45:32;;;;;;;2.95;1.80;;;;;;;14.01;67.91;102185.28;5030948;28;20037;-81
2022/07/18 04:47:58;;;;;;;1.98;1.85;;;;;;;14.03;67.16;102180.91;5031166;28;20025;-82
2022/07/18 04:50:24;;;;;;;1.90;1.70;;;;;;;14.05;67.66;102187.00;5030016;28;20036;-81
2022/07/18 04:52:50;;;;;;;2.38;1.90;;;;;;;14.10;66.88;102181.72;5020169;28;20029;-81
2022/07/18 04:55:17;;;;;;;1.60;1.50;;;;;;;14.14;67.43;102188.63;5031410;28;20359;-81
2022/07/18 04:57:43;;;;;;;1.70;1.60;;;;;;;14.19;67.06;102191.19;5036348;28;20032;-81
2022/07/18 05:00:12;;;;;;;2.77;1.80;;;;;;;14.24;66.91;102196.41;5034775;28;20420;-80
2022/07/18 05:02:41;;;;;;;1.52;1.42;;;;;;;14.28;67.29;102192.88;5035590;28;20116;-81
2022/07/18 05:05:08;;;;;;;1.58;1.48;;;;;;;14.30;67.32;102185.91;5035721;28;20029;-81
2022/07/18 05:07:33;;;;;;;2.03;1.77;;;;;;;14.33;67.42;102184.13;5035226;28;20496;-81
2022/07/18 05:09:59;;;;;;;2.07;1.80;;;;;;;14.36;67.01;102180.59;5035557;28;20117;-81
2022/07/18 05:12:24;;;;;;;1.73;1.63;;;;;;;14.41;67.32;102184.06;5035508;28;20060;-81
2022/07/18 05:14:50;;;;;;;2.63;2.20;;;;;;;14.45;67.14;102185.75;5034797;28;20444;-81
2022/07/18 05:17:15;;;;;;;2.47;2.05;;;;;;;14.51;67.04;102190.06;5035724;28;20030;-81
2022/07/18 05:19:41;;;;;;;2.67;2.00;;;;;;;14.56;67.00;102198.69;5036267;28;20022;-81
2022/07/18 05:22:06;;;;;;;2.30;2.10;;;;;;;14.64;66.61;102196.84;5024318;28;20042;-81
2022/07/18 05:24:31;;;;;;;2.07;1.83;;;;;;;14.72;67.06;102194.19;5017236;28;20075;-81
2022/07/18 05:26:56;;;;;;;1.83;1.70;;;;;;;14.77;66.79;102189.81;5029471;28;20030;-81
2022/07/18 05:29:22;;;;;;;1.60;1.50;;;;;;;14.83;67.05;102189.72;5034745;28;20037;-81
2022/07/18 05:31:47;;;;;;;2.10;1.77;;;;;;;14.88;66.90;102181.81;5035381;28;20466;-81
2022/07/18 05:34:12;;;;;;;1.60;1.50;;;;;;;14.95;66.28;102195.69;5035331;28;20029;-83
2022/07/18 05:36:37;;;;;;;2.47;1.70;;;;;;;15.02;67.36;102199.09;5035020;28;20040;-83
2022/07/18 05:39:03;;;;;;;1.70;1.60;;;;;;;15.05;67.73;102193.84;5034807;28;20021;-82
2022/07/18 05:41:28;;;;;;;1.60;1.50;;;;;;;15.11;66.86;102189.41;5034740;28;20039;-80
2022/07/18 05:43:53;;;;;;;1.40;1.30;;;;;;;15.19;67.27;102194.53;5034353;28;20029;-80
2022/07/18 05:46:19;;;;;;;1.60;1.50;;;;;;;15.26;67.53;102192.66;5035393;28;20492;-79
2022/07/18 05:48:45;;;;;;;2.07;1.87;;;;;;;15.34;67.31;102206.53;5034970;28;20393;-80
2022/07/18 05:51:11;;;;;;;1.92;1.83;;;;;;;15.41;67.96;102202.09;5034386;28;20038;-80
2022/07/18 05:53:36;;;;;;;2.60;2.40;;;;;;;15.49;66.16;102196.72;5035196;28;20385;-81
2022/07/18 05:56:01;;;;;;;2.60;2.40;;;;;;;15.57;67.37;102200.97;5034560;28;20022;-81
2022/07/18 05:58:27;;;;;;;3.43;2.50;;;;;;;15.66;68.30;102204.31;5034084;28;20425;-80
2022/07/18 06:00:52;;;;;;;4.47;2.90;;;;;;;15.74;68.55;102194.63;5034855;28;20129;-80
2022/07/18 06:03:17;;;;;;;4.90;2.70;;;;;;;15.83;67.43;102186.63;5034707;28;20521;-80
2022/07/18 06:05:43;;;;;;;3.37;2.57;;;;;;;15.94;67.91;102190.84;5033796;28;20394;-81
2022/07/18 06:08:08;;;;;;;5.90;3.40;;;;;;;16.04;68.04;102197.66;5033069;28;20029;-81
2022/07/18 06:10:33;;;;;;;6.23;3.20;;;;;;;16.14;67.78;102199.25;5034062;28;20041;-81
2022/07/18 06:12:58;;;;;;;4.77;3.50;;;;;;;16.26;67.46;102200.81;5034456;28;20087;-81
2022/07/18 06:15:24;;;;;;;4.50;3.20;;;;;;;16.38;67.82;102193.63;5034433;28;20071;-81
2022/07/18 06:17:50;;;;;;;6.83;3.30;;;;;;;16.50;67.28;102188.13;5033871;28;20516;-81
2022/07/18 06:20:15;;;;;;;3.93;3.07;;;;;;;16.69;67.14;102183.41;5034700;28;20764;-81
2022/07/18 06:22:41;;;;;;;5.13;3.17;;;;;;;17.07;67.39;102183.53;5034521;28;20033;-82
2022/07/18 06:25:07;;;;;;;3.90;2.93;;;;;;;17.70;65.69;102183.91;5033181;28;20029;-81
2022/07/18 06:27:32;;;;;;;3.93;3.00;;;;;;;18.21;64.86;102177.41;5034602;28;20057;-81
2022/07/18 06:29:58;;;;;;;5.40;2.80;;;;;;;18.81;63.20;102175.75;5034048;28;20511;-82
2022/07/18 06:32:24;;;;;;;3.67;2.72;;;;;;;19.39;61.12;102174.97;5033621;28;20113;-81
2022/07/18 06:34:49;;;;;;;5.90;3.03;;;;;;;19.64;59.61;102175.94;5033953;28;20097;-81
2022/07/18 06:37:14;;;;;;;3.30;2.40;;;;;;;19.81;59.50;102171.00;5034102;28;20024;-82
2022/07/18 06:39:40;;;;;;;6.17;2.93;;;;;;;20.23;58.05;102164.31;5033389;28;20060;-82
2022/07/18 06:42:05;;;;;;;6.17;3.23;;;;;;;20.95;55.51;102162.63;5033729;28;20109;-83
2022/07/18 06:44:30;;;;;;;4.70;3.03;;;;;;;21.51;55.17;102165.72;5034430;28;20040;-82
2022/07/18 06:46:57;;;;;;;6.10;3.10;;;;;;;22.14;53.71;102160.47;5031510;28;20071;-81
2022/07/18 06:49:23;;;;;;;4.95;2.70;;;;;;;22.66;52.99;102164.44;5034070;28;20397;-83
2022/07/18 06:51:48;;;;;;;3.75;2.40;;;;;;;23.13;51.58;102160.47;5033842;28;20033;-84
2022/07/18 06:54:13;;;;;;;3.97;2.60;;;;;;;23.49;50.90;102161.44;5033460;28;20022;-85
2022/07/18 06:56:39;;;;;;;4.70;2.63;;;;;;;23.70;49.62;102156.88;5034041;28;20017;-85
2022/07/18 06:59:04;;;;;;;2.93;2.23;;;;;;;23.95;49.87;102153.00;5033447;28;20033;-84
2022/07/18 07:01:29;;;;;;;4.73;2.30;;;;;;;24.03;50.39;102156.13;5033323;28;20132;-84
2022/07/18 07:03:54;;;;;;;3.67;2.17;;;;;;;24.06;48.87;102155.97;5033465;28;20018;-84
2022/07/18 07:06:20;;;;;;;3.43;2.30;;;;;;;24.14;47.46;102163.53;5034067;28;20378;-85
2022/07/18 07:08:45;;;;;;;5.10;2.77;;;;;;;24.06;49.59;102159.47;5033220;28;20129;-84
2022/07/18 07:11:10;;;;;;;4.67;2.77;;;;;;;24.01;45.36;102164.16;5033350;28;20022;-84
2022/07/18 07:13:36;;;;;;;3.47;2.60;;;;;;;23.94;48.90;102160.06;5033679;28;20103;-84
2022/07/18 07:16:02;;;;;;;2.43;2.17;;;;;;;24.06;46.54;102167.44;5033076;28;20472;-84
2022/07/18 07:18:27;;;;;;;3.95;2.40;;;;;;;24.12;48.19;102168.06;5032985;28;20032;-84
2022/07/18 07:20:52;;;;;;;4.60;2.90;;;;;;;24.19;46.05;102165.00;5032489;28;20025;-84
2022/07/18 07:23:18;;;;;;;4.63;2.40;;;;;;;24.25;49.60;102168.25;5033623;28;20034;-85
2022/07/18 07:25:43;;;;;;;3.33;2.20;;;;;;;24.41;47.28;102165.66;5033901;28;20025;-85
2022/07/18 07:28:08;;;;;;;2.90;2.10;;;;;;;24.46;49.39;102164.47;5032255;28;20815;-85
2022/07/18 07:30:34;;;;;;;2.73;2.10;;;;;;;24.57;49.18;102168.34;5033544;28;20069;-85
2022/07/18 07:33:01;;;;;;;3.88;2.20;;;;;;;24.66;48.85;102165.19;5033437;28;20025;-84
2022/07/18 07:35:27;;;;;;;2.40;1.92;;;;;;;24.76;47.70;102171.78;5032991;28;20375;-84
2022/07/18 07:37:54;;;;;;;2.17;1.93;;;;;;;24.89;48.74;102171.06;5033132;28;20081;-85
2022/07/18 07:40:21;;;;;;;2.60;1.90;;;;;;;25.01;48.14;102169.56;5033542;28;20030;-84
2022/07/18 07:42:47;;;;;;;2.53;2.00;;;;;;;25.03;48.58;102165.84;5032601;28;20091;-84
2022/07/18 07:45:13;;;;;;;1.98;1.70;;;;;;;25.05;46.63;102158.66;5033040;28;20029;-85
2022/07/18 07:47:39;;;;;;;1.75;1.65;;;;;;;24.98;48.43;102158.16;5033268;28;20025;-85
2022/07/18 07:50:07;;;;;;;2.90;1.70;;;;;;;24.98;48.71;102154.66;5032245;28;20041;-85
2022/07/18 07:52:32;;;;;;;2.13;1.73;;;;;;;25.07;48.06;102156.78;5065228;28;20397;-85
2022/07/18 07:54:57;;;;;;;2.10;1.90;;;;;;;25.19;43.45;102152.56;5032759;28;20028;-85
2022/07/18 07:57:23;;;;;;;2.93;2.03;;;;;;;25.17;43.53;102143.81;5032405;28;20478;-85
2022/07/18 07:59:48;;;;;;;2.05;1.73;;;;;;;25.21;46.91;102139.22;5033053;28;20026;-85
2022/07/18 08:02:18;;;;;;;1.70;1.60;;;;;;;25.31;45.55;102139.53;5032565;28;20445;-85
2022/07/18 08:04:43;;;;;;;1.73;1.60;;;;;;;25.42;46.05;102138.00;5032392;28;20044;-84
2022/07/18 08:07:09;;;;;;;1.70;1.60;;;;;;;25.53;45.65;102129.38;5032431;28;20805;-85
2022/07/18 08:09:34;;;;;;;1.77;1.50;;;;;;;25.64;45.41;102127.91;5032953;28;20025;-85
2022/07/18 08:11:59;;;;;;;1.40;1.30;;;;;;;25.71;43.36;102124.78;5031554;28;20052;-84
2022/07/18 08:14:25;;;;;;;1.60;1.50;;;;;;;25.83;44.44;102127.66;5032764;28;20030;-85
2022/07/18 08:16:50;;;;;;;1.70;1.60;;;;;;;25.95;43.95;102118.09;5032181;28;20302;-85
2022/07/18 08:19:15;;;;;;;1.40;1.30;;;;;;;26.04;40.08;102107.75;5032291;28;20117;-84
2022/07/18 08:21:41;;;;;;;2.70;1.50;;;;;;;26.09;39.57;102104.81;5032234;28;20041;-85
2022/07/18 08:24:06;;;;;;;1.83;1.70;;;;;;;26.13;40.08;102108.16;5031363;28;20061;-83
2022/07/18 08:26:33;;;;;;;1.80;1.70;;;;;;;26.23;42.47;102108.44;5032825;28;20112;-87
2022/07/18 08:28:59;;;;;;;1.45;1.35;;;;;;;26.36;39.82;102117.38;5032256;28;20096;-86
2022/07/18 08:31:25;;;;;;;1.63;1.47;;;;;;;26.45;37.60;102110.63;5033840;28;20018;-82
2022/07/18 08:33:50;;;;;;;1.42;1.33;;;;;;;26.54;41.33;102117.16;5036870;28;20022;-83
2022/07/18 08:36:15;;;;;;;1.80;1.70;;;;;;;26.63;38.76;102121.91;5036876;28;20424;-84
2022/07/18 08:38:41;;;;;;;1.30;1.30;;;;;;;26.71;40.55;102130.28;5035780;28;20080;-85
2022/07/18 08:41:07;;;;;;;0.97;0.97;;;;;;;26.86;41.85;102127.59;5035961;28;20143;-84
2022/07/18 08:43:32;;;;;;;0.93;0.93;;;;;;;27.01;42.09;102133.75;5036522;28;20017;-84
2022/07/18 08:46:05;;;;;;;0.90;0.90;;;;;;;27.13;41.29;102135.63;5035260;28;20397;-85
2022/07/18 08:48:32;;;;;;;0.68;0.68;;;;;;;27.24;40.03;102126.91;5036117;28;20112;-84
2022/07/18 08:50:59;;;;;;;1.05;0.98;;;;;;;27.31;39.32;102125.53;5036284;28;20025;-84
2022/07/18 08:53:25;;;;;;;0.75;0.75;;;;;;;27.41;40.54;102128.44;5033953;28;20108;-84
2022/07/18 08:55:50;;;;;;;0.95;0.70;;;;;;;27.56;41.81;102129.25;5036092;28;20079;-85
2022/07/18 08:58:17;;;;;;;0.63;0.63;;;;;;;27.70;38.86;102126.53;5035304;28;20068;-83
2022/07/18 09:00:45;;;;;;;0.70;0.70;;;;;;;27.82;41.27;102119.47;5035343;28;20295;-84
2022/07/18 09:03:11;;;;;;;1.58;1.20;;;;;;;27.87;34.35;102120.03;5034285;28;20025;-84
2022/07/18 09:05:37;;;;;;;;;;;;;;;27.79;34.78;102122.38;5036282;28;20025;-86
2022/07/18 09:08:16;;;;;;;;;;;;;;;27.72;36.68;102121.94;5035456;28;20369;-84
2022/07/18 09:10:59;;;;;;;1.65;1.55;;;;;;;27.84;39.10;102114.91;5033311;28;19917;-84
2022/07/18 09:13:35;;;;;;;1.08;1.08;;;;;;;28.00;38.80;102117.34;5035979;28;20033;-83
2022/07/18 09:16:13;;;;;;;;;;;;;;;28.17;39.79;102112.69;5038256;28;20025;-84
2022/07/18 09:18:46;;;;;;;1.02;1.02;;;;;;;28.41;39.42;102119.91;5055818;28;19917;-84
2022/07/18 09:21:23;;;;;;;0.90;0.70;;;;;;;28.56;38.04;102120.63;5048548;28;20097;-84
2022/07/18 09:23:53;;;;;;;0.88;0.88;;;;;;;28.70;38.88;102125.84;5035046;28;20079;-84
2022/07/18 09:26:42;;;;;;;0.93;0.93;;;;;;;28.89;38.88;102125.34;5035486;28;20436;-84
2022/07/18 09:29:10;;;;;;;0.80;0.80;;;;;;;28.95;36.88;102127.59;5041564;28;20052;-85
2022/07/18 09:31:36;;;;;;;0.60;0.60;;;;;;;28.99;36.05;102127.38;5034888;28;20140;-84
2022/07/18 09:34:02;;;;;;;;;;;;;;;29.04;37.88;102127.88;5035330;28;20150;-84
2022/07/18 09:36:29;;;;;;;0.70;0.70;;;;;;;29.08;38.28;102130.19;5034775;28;19974;-85
2022/07/18 09:38:55;;;;;;;0.65;0.65;;;;;;;29.12;34.08;102128.13;5035097;28;20381;-85
2022/07/18 09:41:32;;;;;;;0.90;0.80;;;;;;;29.11;34.89;102116.63;5035237;28;20030;-85
2022/07/18 09:43:58;;;;;;;1.25;1.20;;;;;;;29.07;34.60;102123.13;5034488;28;20079;-85
2022/07/18 09:46:23;;;;;;;;;;;;;;;29.07;34.65;102125.81;5035308;28;20394;-85
2022/07/18 09:49:07;;;;;;;1.17;1.13;;;;;;;29.26;37.26;102124.47;5033936;28;20501;-84
2022/07/18 09:51:33;;;;;;;1.37;1.27;;;;;;;29.43;36.11;102117.88;5041538;28;20028;-85
2022/07/18 09:54:00;;;;;;;;;;;;;;;29.58;37.54;102126.53;5054918;28;20050;-85
2022/07/18 09:56:25;;;;;;;1.20;1.10;;;;;;;29.74;37.00;102127.03;5054250;28;19920;-84
2022/07/18 09:58:52;;;;;;;;;;;;;;;29.83;31.46;102119.31;5053521;28;20029;-84
2022/07/18 10:01:17;;;;;;;1.27;1.17;;;;;;;29.82;35.97;102113.06;5054392;28;19912;-84
2022/07/18 10:03:43;;;;;;;;;;;;;;;29.90;35.89;102112.50;5053668;28;20032;-84
2022/07/18 10:06:08;;;;;;;1.33;1.20;;;;;;;30.07;36.85;102113.00;5054724;28;19928;-84
2022/07/18 10:08:34;;;;;;;;;;;;;;;30.24;37.25;102112.53;5040859;28;20053;-84
2022/07/18 10:11:01;;;;;;;2.28;1.15;;;;;;;30.37;31.67;102111.56;5026164;28;19917;-84
2022/07/18 10:13:29;;;;;;;1.70;1.17;;;;;;;30.42;34.27;102112.88;5015389;28;20077;-84
2022/07/18 10:15:55;;;;;;;1.30;1.20;;;;;;;30.53;36.45;102111.16;5014839;28;20022;-84
2022/07/18 10:18:23;;;;;;;0.75;0.75;;;;;;;30.62;35.81;102108.63;5014237;28;20022;-85
2022/07/18 10:20:59;;;;;;;1.08;0.80;;;;;;;30.74;36.02;102108.56;5014988;28;20029;-84
2022/07/18 10:23:34;;;;;;;0.65;0.65;;;;;;;30.87;36.44;102103.06;5015325;28;20030;-85
2022/07/18 10:26:25;;;;;;;0.73;0.73;;;;;;;31.04;36.76;102112.41;5014108;28;20433;-84
2022/07/18 10:28:56;;;;;;;0.60;0.60;;;;;;;31.17;36.74;102110.44;5014105;28;20052;-84
2022/07/18 10:31:37;;;;;;;0.68;0.68;;;;;;;31.28;35.89;102112.19;5014180;28;20156;-85
2022/07/18 10:34:08;;;;;;;0.63;0.63;;;;;;;31.31;35.05;102111.06;5014703;28;20022;-85
2022/07/18 10:36:51;;;;;;;0.60;0.60;;;;;;;31.35;36.02;102105.34;5015693;28;20037;-85
2022/07/18 10:39:24;;;;;;;0.52;0.52;;;;;;;31.50;34.81;102099.63;5014104;28;20029;-85
2022/07/18 10:41:54;;;;;;;1.05;0.95;;;;;;;31.60;35.18;102102.41;5028076;28;20112;-85
2022/07/18 10:44:31;;;;;;;0.63;0.63;;;;;;;31.74;35.70;102102.09;5034262;28;20432;-85
2022/07/18 10:47:02;;;;;;;0.60;0.60;;;;;;;31.95;35.55;102103.88;5033482;28;20041;-85
2022/07/18 10:52:25;;;;;;;;;;;;;;;32.10;35.09;102099.84;5033621;28;20030;-85
2022/07/18 10:55:03;;;;;;;0.75;0.75;;;;;;;32.19;34.61;102098.19;5033369;28;19921;-85
2022/07/18 10:57:29;;;;;;;0.60;0.60;;;;;;;32.23;35.08;102098.75;5034296;28;20448;-85
2022/07/18 11:00:13;;;;;;;0.40;0.40;;;;;;;32.34;35.18;102096.00;5033227;28;20025;-85
2022/07/18 11:02:47;;;;;;;0.45;0.40;;;;;;;32.40;34.25;102092.78;5033928;28;20477;-86
2022/07/18 11:05:27;;;;;;;0.85;0.85;;;;;;;32.41;31.40;102097.16;5033303;28;20127;-83
2022/07/18 11:07:58;;;;;;;3.13;2.00;;;;;;;32.08;29.16;102091.09;5032964;28;20112;-84
2022/07/18 11:10:46;;;;;;;3.00;2.05;;;;;;;31.92;32.49;102088.88;5033645;28;20033;-82
2022/07/18 11:13:29;;;;;;;3.00;2.13;;;;;;;31.96;32.82;102089.50;5032416;28;20032;-82
2022/07/18 11:16:09;;;;;;;1.73;1.63;;;;;;;32.14;33.61;102087.84;5033639;28;20076;-83
2022/07/18 11:18:44;;;;;;;1.40;1.30;;;;;;;32.31;33.24;102083.69;5033712;28;20057;-83
2022/07/18 11:21:21;;;;;;;1.50;1.40;;;;;;;32.45;33.94;102074.41;5032281;28;20029;-83
2022/07/18 11:23:49;;;;;;;0.95;0.95;;;;;;;32.60;33.78;102084.75;5033085;28;20091;-83
2022/07/18 11:26:16;;;;;;;1.77;0.93;;;;;;;32.75;33.83;102083.38;5033303;28;20033;-83
2022/07/18 11:28:42;;;;;;;1.00;1.00;;;;;;;32.92;34.23;102078.28;5032580;28;20509;-84
2022/07/18 11:31:11;;;;;;;0.85;0.85;;;;;;;33.07;34.01;102073.34;5032518;28;20053;-85